West Homestead, Pennsylvania
Current Conditions -  °F | °C
As of 7:53 PM on Saturday 22 Nov 2014 (Local Time) from KAGC Reporting Station
Overcast Overcast  
Wind Chill: 43°   Ceiling: 10000
Heat Index: 47°   Visibility: 10mi
Dew Point: 24°   Wind: 8mph
Humidity: 41%   Direction: 190°S
Pressure: 30.11"   Gusts: NA
Location:  40.3948°N, 79.9074°W
Report Text: KAGC 230053Z 19007KT 10SM OVC100 08/M04 A3011 RMK AO2 SLP214 T00831044
Loading
Personal Weather Stations






























Interactive Weather Map New forecast layout! Learn more

10-Day Weather Forecast

Advertisements
Track Severe Weather on mobile